createdAt,value
2018-04-22T00:01:50.443Z,19.70
2018-04-22T00:05:53.015Z,17.27
2018-04-22T00:09:55.556Z,20.73
2018-04-22T00:13:58.882Z,20.87
2018-04-22T00:18:01.530Z,21.30
2018-04-22T00:22:10.589Z,22.07
2018-04-22T00:26:13.107Z,20.87
2018-04-22T00:30:15.735Z,20.27
2018-04-22T00:34:19.999Z,20.73
2018-04-22T00:38:25.187Z,20.83
2018-04-22T00:42:27.714Z,21.03
2018-04-22T00:46:30.355Z,19.27
2018-04-22T00:50:32.870Z,24.27
2018-04-22T00:54:36.195Z,23.00
2018-04-22T00:58:38.715Z,20.77
2018-04-22T01:02:43.968Z,21.33
2018-04-22T01:06:47.482Z,19.80
2018-04-22T01:10:50.032Z,19.60
2018-04-22T01:14:53.487Z,20.30
2018-04-22T01:18:56.038Z,21.37
2018-04-22T01:23:00.248Z,21.93
2018-04-22T01:27:13.608Z,23.87
2018-04-22T01:31:16.131Z,24.80
2018-04-22T01:35:18.679Z,21.00
2018-04-22T01:39:21.203Z,22.07
2018-04-22T01:43:24.105Z,21.27
2018-04-22T01:47:28.378Z,19.97
2018-04-22T01:51:31.213Z,21.10
2018-04-22T01:55:33.736Z,22.03
2018-04-22T01:59:43.355Z,27.20
2018-04-22T02:03:45.947Z,21.70
2018-04-22T02:07:48.519Z,25.23
2018-04-22T02:11:51.039Z,22.33
2018-04-22T02:15:54.435Z,22.53
2018-04-22T02:19:56.946Z,22.73
2018-04-22T02:24:00.516Z,23.13
2018-04-22T02:28:03.030Z,21.20
2018-04-22T02:32:05.604Z,21.33
2018-04-22T02:36:08.134Z,23.17
2018-04-22T02:40:11.071Z,21.40
2018-04-22T02:44:13.600Z,23.57
2018-04-22T02:48:39.987Z,23.83
2018-04-22T02:52:43.287Z,27.03
2018-04-22T02:56:45.838Z,24.03
2018-04-22T03:00:48.363Z,22.70
2018-04-22T03:04:50.915Z,26.83
2018-04-22T03:08:53.434Z,26.73
2018-04-22T03:12:56.879Z,22.60
2018-04-22T03:16:59.409Z,22.77
2018-04-22T03:21:02.878Z,25.63
2018-04-22T03:25:05.398Z,24.40
2018-04-22T03:29:08.709Z,24.00
2018-04-22T03:33:11.227Z,21.30
2018-04-22T03:37:14.542Z,23.30
2018-04-22T03:41:17.067Z,22.33
2018-04-22T03:45:20.467Z,22.70
2018-04-22T03:49:22.982Z,22.80
2018-04-22T03:53:25.547Z,25.03
2018-04-22T03:57:28.062Z,24.23
2018-04-22T04:01:30.706Z,28.80
2018-04-22T04:05:33.222Z,25.17
2018-04-22T04:09:36.148Z,23.80
2018-04-22T04:13:38.676Z,26.20
2018-04-22T04:17:41.222Z,23.30
2018-04-22T04:21:55.400Z,25.90
2018-04-22T04:26:10.743Z,23.93
2018-04-22T04:30:13.279Z,26.33
2018-04-22T04:34:15.834Z,23.50
2018-04-22T04:38:19.131Z,25.20
2018-04-22T04:42:21.688Z,29.17
2018-04-22T04:46:25.151Z,29.30
2018-04-22T04:50:27.702Z,25.97
2018-04-22T04:54:31.175Z,23.90
2018-04-22T04:58:33.732Z,23.53
2018-04-22T05:02:37.039Z,23.57
2018-04-22T05:06:39.596Z,22.00
2018-04-22T05:10:44.143Z,25.40
2018-04-22T05:14:46.687Z,21.80
2018-04-22T05:18:49.202Z,26.67
2018-04-22T05:22:51.746Z,23.87
2018-04-22T05:26:56.232Z,23.40
2018-04-22T05:30:58.778Z,22.47
2018-04-22T05:35:02.066Z,19.80
2018-04-22T05:39:06.635Z,20.33
2018-04-22T05:43:09.194Z,21.20
2018-04-22T05:47:11.838Z,20.53
2018-04-22T05:51:16.295Z,26.53
2018-04-22T05:55:19.046Z,23.60
2018-04-22T05:59:21.699Z,24.77
2018-04-22T06:03:24.254Z,20.30
2018-04-22T06:07:27.538Z,20.43
2018-04-22T06:11:34.970Z,24.17
2018-04-22T06:15:37.490Z,20.23
2018-04-22T06:19:46.014Z,20.57
2018-04-22T06:23:48.538Z,23.37
2018-04-22T06:27:51.078Z,22.50
2018-04-22T06:31:55.570Z,21.27
2018-04-22T06:35:58.118Z,21.83
2018-04-22T06:40:03.330Z,22.13
2018-04-22T06:44:05.923Z,22.43
2018-04-22T06:48:10.391Z,20.97
2018-04-22T06:52:14.263Z,21.33
2018-04-22T06:56:16.808Z,21.57
2018-04-22T07:00:19.667Z,21.70
2018-04-22T07:04:28.378Z,19.33
2018-04-22T07:08:31.855Z,18.20
2018-04-22T07:12:43.515Z,18.63
2018-04-22T07:16:46.064Z,18.37
2018-04-22T07:20:48.619Z,16.40
2018-04-22T07:24:56.094Z,18.30
2018-04-22T07:28:58.630Z,17.37
2018-04-22T07:33:01.966Z,19.93
2018-04-22T07:37:04.505Z,16.30
2018-04-22T07:41:07.122Z,17.73
2018-04-22T07:45:10.061Z,15.87
2018-04-22T07:49:13.510Z,18.08
2018-04-22T07:53:18.726Z,16.20
2018-04-22T07:57:21.274Z,15.50
2018-04-22T08:01:28.266Z,14.15
2018-04-22T08:05:30.830Z,16.75
2018-04-22T08:09:39.667Z,15.43
2018-04-22T08:13:47.468Z,16.10
2018-04-22T08:17:49.989Z,16.08
2018-04-22T08:21:59.734Z,13.32
2018-04-22T08:26:08.997Z,15.10
2018-04-22T08:30:12.537Z,16.80
2018-04-22T08:34:19.294Z,16.23
2018-04-22T08:38:21.851Z,15.73
2018-04-22T08:42:32.166Z,15.95
2018-04-22T08:46:35.775Z,16.00
2018-04-22T08:50:39.122Z,13.30
2018-04-22T08:54:58.062Z,14.18
2018-04-22T08:59:00.594Z,13.60
2018-04-22T09:03:04.123Z,13.35
2018-04-22T09:07:06.653Z,14.73
2018-04-22T09:11:09.471Z,15.93
2018-04-22T09:15:11.994Z,12.73
2018-04-22T09:19:14.545Z,12.10
2018-04-22T09:23:21.228Z,13.15
2018-04-22T09:27:31.826Z,13.62
2018-04-22T09:31:34.351Z,13.70
2018-04-22T09:35:37.876Z,13.43
2018-04-22T09:39:40.405Z,12.30
2018-04-22T09:43:43.719Z,12.63
2018-04-22T09:47:47.094Z,11.15
2018-04-22T09:51:49.646Z,11.82
2018-04-22T09:55:52.947Z,13.00
2018-04-22T09:59:59.246Z,10.77
2018-04-22T10:04:01.757Z,9.70
2018-04-22T10:08:09.888Z,10.67
2018-04-22T10:12:12.424Z,15.17
2018-04-22T10:16:29.850Z,10.87
2018-04-22T10:20:35.723Z,11.17
2018-04-22T10:24:38.270Z,9.20
2018-04-22T10:28:41.570Z,11.13
2018-04-22T10:32:44.116Z,10.47
2018-04-22T10:36:52.172Z,9.77
2018-04-22T10:40:55.803Z,10.90
2018-04-22T10:44:58.312Z,10.20
2018-04-22T10:49:18.888Z,13.50
2018-04-22T10:53:22.215Z,11.00
2018-04-22T10:57:25.518Z,10.57
2018-04-22T11:01:37.799Z,8.73
2018-04-22T11:05:40.354Z,10.10
2018-04-22T11:09:42.901Z,11.47
2018-04-22T11:13:45.473Z,11.07
2018-04-22T11:17:47.990Z,10.87
2018-04-22T11:21:51.310Z,9.10
2018-04-22T11:25:53.818Z,6.83
2018-04-22T11:30:08.966Z,7.03
2018-04-22T11:34:11.494Z,7.47
2018-04-22T11:38:25.196Z,8.10
2018-04-22T11:42:33.721Z,7.97
2018-04-22T11:46:36.344Z,8.97
2018-04-22T11:50:43.723Z,9.17
2018-04-22T11:54:47.371Z,7.93
2018-04-22T11:58:49.891Z,6.27
2018-04-22T12:02:52.871Z,8.17
2018-04-22T12:06:55.387Z,6.83
2018-04-22T12:10:58.085Z,6.80
2018-04-22T12:15:00.606Z,8.43
2018-04-22T12:19:03.146Z,8.50
2018-04-22T12:23:07.368Z,6.83
2018-04-22T12:27:10.056Z,7.40
2018-04-22T12:31:12.592Z,14.07
2018-04-22T12:35:15.569Z,8.43
2018-04-22T12:39:18.101Z,5.90
2018-04-22T12:43:20.641Z,7.13
2018-04-22T12:47:39.078Z,8.80
2018-04-22T12:51:41.980Z,6.70
2018-04-22T12:55:44.528Z,10.30
2018-04-22T12:59:47.098Z,6.27
2018-04-22T13:03:50.633Z,6.40
2018-04-22T13:07:53.171Z,6.87
2018-04-22T13:11:56.510Z,9.53
2018-04-22T13:16:04.004Z,21.33
2018-04-22T13:20:14.773Z,9.27
2018-04-22T13:24:17.379Z,12.70
2018-04-22T13:28:24.416Z,11.63
2018-04-22T13:32:27.001Z,11.30
2018-04-22T13:36:41.563Z,11.77
2018-04-22T13:40:45.067Z,11.40
2018-04-22T13:44:47.685Z,12.40
2018-04-22T13:48:53.759Z,10.63
2018-04-22T13:52:57.309Z,10.23
2018-04-22T13:57:01.884Z,9.07
2018-04-22T14:01:04.463Z,12.70
2018-04-22T14:05:07.051Z,10.40
2018-04-22T14:09:10.395Z,10.77
2018-04-22T14:13:13.041Z,8.10
2018-04-22T14:17:17.521Z,7.97
2018-04-22T14:21:24.572Z,17.57
2018-04-22T14:25:32.995Z,10.00
2018-04-22T14:29:36.514Z,8.23
2018-04-22T14:33:39.798Z,7.83
2018-04-22T14:37:43.398Z,8.43
2018-04-22T14:41:45.918Z,6.10
2018-04-22T14:46:04.200Z,4.67
2018-04-22T14:50:06.743Z,7.87
2018-04-22T14:54:09.294Z,5.93
2018-04-22T14:58:26.003Z,9.77
2018-04-22T15:02:35.934Z,3.33
2018-04-22T15:06:49.731Z,5.10
2018-04-22T15:10:52.692Z,10.10
2018-04-22T15:14:55.229Z,6.40
2018-04-22T15:19:14.433Z,6.43
2018-04-22T15:23:36.003Z,7.43
2018-04-22T15:27:46.136Z,7.10
2018-04-22T15:31:59.142Z,4.57
2018-04-22T15:40:31.521Z,3.20
2018-04-22T15:44:34.850Z,4.60
2018-04-22T15:48:39.126Z,3.43
2018-04-22T15:52:56.655Z,7.30
2018-04-22T15:57:01.139Z,6.17
2018-04-22T16:01:05.906Z,3.83
2018-04-22T16:05:22.062Z,6.83
2018-04-22T16:09:39.663Z,3.30
2018-04-22T16:13:52.839Z,3.30
2018-04-22T16:17:55.387Z,6.80
2018-04-22T16:21:57.921Z,4.03
2018-04-22T16:26:02.507Z,3.50
2018-04-22T16:30:12.243Z,6.17
2018-04-22T16:34:23.054Z,4.47
2018-04-22T16:38:25.564Z,4.30
2018-04-22T16:42:28.124Z,3.23
2018-04-22T16:46:31.615Z,8.00
2018-04-22T16:50:51.286Z,3.90
2018-04-22T16:54:54.572Z,5.17
2018-04-22T16:58:57.121Z,6.93
2018-04-22T17:03:00.404Z,3.20
2018-04-22T17:07:03.933Z,6.73
2018-04-22T17:11:07.466Z,4.80
2018-04-22T17:19:38.246Z,5.20
2018-04-22T17:23:41.815Z,4.60
2018-04-22T17:27:46.356Z,5.60
2018-04-22T17:31:49.028Z,6.93
2018-04-22T17:35:52.352Z,10.43
2018-04-22T17:39:54.895Z,5.87
2018-04-22T17:43:57.407Z,8.50
2018-04-22T17:48:05.539Z,5.97
2018-04-22T17:52:08.055Z,9.17
2018-04-22T17:56:13.632Z,4.97
2018-04-22T18:00:16.149Z,6.27
2018-04-22T18:04:18.701Z,13.40
2018-04-22T18:08:21.214Z,7.27
2018-04-22T18:12:38.722Z,9.30
2018-04-22T18:17:02.807Z,8.90
2018-04-22T18:21:05.350Z,8.73
2018-04-22T18:25:07.871Z,5.57
2018-04-22T18:29:20.505Z,7.17
2018-04-22T18:33:23.023Z,9.30
2018-04-22T18:37:25.575Z,10.07
2018-04-22T18:41:28.087Z,9.23
2018-04-22T18:45:31.393Z,6.27
2018-04-22T18:49:33.906Z,12.47
2018-04-22T18:53:36.823Z,8.03
2018-04-22T18:57:40.103Z,15.63
2018-04-22T19:01:43.075Z,9.23
2018-04-22T19:05:46.355Z,9.00
2018-04-22T19:09:48.891Z,4.73
2018-04-22T19:13:51.411Z,7.07
2018-04-22T19:17:57.979Z,10.87
2018-04-22T19:22:00.498Z,4.73
2018-04-22T19:26:03.430Z,8.87
2018-04-22T19:30:06.810Z,7.40
2018-04-22T19:34:09.347Z,8.23
2018-04-22T19:38:25.576Z,14.10
2018-04-22T19:42:29.902Z,13.93
2018-04-22T19:46:32.414Z,12.50
2018-04-22T19:50:34.966Z,13.33
2018-04-22T19:54:37.487Z,9.80
2018-04-22T19:58:57.462Z,11.93
2018-04-22T20:03:00.820Z,13.30
2018-04-22T20:07:04.662Z,7.33
2018-04-22T20:11:07.174Z,10.77
2018-04-22T20:15:09.735Z,10.00
2018-04-22T20:19:19.215Z,10.27
2018-04-22T20:23:22.528Z,13.10
2018-04-22T20:27:25.990Z,11.43
2018-04-22T20:31:28.544Z,12.33
2018-04-22T20:35:31.068Z,9.93
2018-04-22T20:39:36.302Z,9.67
2018-04-22T20:43:38.907Z,9.90
2018-04-22T20:47:41.856Z,12.83
2018-04-22T20:51:45.130Z,9.03
2018-04-22T20:55:47.669Z,17.70
2018-04-22T20:59:50.195Z,13.47
2018-04-22T21:03:53.514Z,8.43
2018-04-22T21:07:56.803Z,10.40
2018-04-22T21:11:59.339Z,11.13
2018-04-22T21:16:02.624Z,14.67
2018-04-22T21:24:35.474Z,16.30
2018-04-22T21:28:38.024Z,9.07
2018-04-22T21:32:41.315Z,11.93
2018-04-22T21:36:43.859Z,11.37
2018-04-22T21:40:46.472Z,8.53
2018-04-22T21:44:51.743Z,12.30
2018-04-22T21:48:55.023Z,10.80
2018-04-22T21:53:01.018Z,11.33
2018-04-22T21:57:04.098Z,9.67
2018-04-22T22:01:06.701Z,9.57
2018-04-22T22:05:09.286Z,9.63
2018-04-22T22:09:12.603Z,9.10
2018-04-22T22:13:20.028Z,7.87
2018-04-22T22:17:22.638Z,10.60
2018-04-22T22:21:27.904Z,13.87
2018-04-22T22:25:31.690Z,9.43
2018-04-22T22:29:34.285Z,9.00
2018-04-22T22:33:37.831Z,8.20
2018-04-22T22:37:45.131Z,10.57
2018-04-22T22:41:47.764Z,12.70
2018-04-22T22:45:50.274Z,11.13
2018-04-22T22:49:52.913Z,9.53
2018-04-22T22:53:56.211Z,11.73
2018-04-22T22:57:59.046Z,8.67
2018-04-22T23:02:01.570Z,13.70
2018-04-22T23:06:04.126Z,10.47
2018-04-22T23:10:06.639Z,13.63
2018-04-22T23:14:09.182Z,8.63
2018-04-22T23:18:11.700Z,11.97
2018-04-22T23:22:20.186Z,12.07
2018-04-22T23:26:22.695Z,9.97
2018-04-22T23:30:25.242Z,14.17
2018-04-22T23:34:27.766Z,13.23
2018-04-22T23:38:32.255Z,9.90
2018-04-22T23:42:34.765Z,9.43
2018-04-22T23:46:37.306Z,10.60
2018-04-22T23:50:39.857Z,9.33
2018-04-22T23:54:42.390Z,7.73
2018-04-22T23:58:44.911Z,11.80
